Alexander, West Virginia
Current Conditions -  °F | °C
As of 11:55 AM on Saturday 25 Oct 2014 (Local Time) from KW22 Reporting Station
Broken Clouds Broken Clouds  
Wind Chill: 55°   Ceiling: 8500
Heat Index: 55°   Visibility: 10mi
Dew Point: 43°   Wind: 5mph
Humidity: 63%   Direction: NA
Pressure: 30.01"   Gusts: 15mph
Location:  38.8347°N, 80.2578°W
Report Text: KW22 251555Z AUTO VRB04G13KT 10SM FEW038 BKN085 13/06 A3001 RMK AO2
Loading
Personal Weather Stations






























Interactive Weather Map
Tropical Storm Tracking
New forecast layout! Learn more

10-Day Weather Forecast

Advertisements
Track Severe Weather on mobile